createdAt,value
2023-01-07T00:01:06.312Z,99995.63
2023-01-07T00:03:34.737Z,99992.53
2023-01-07T00:06:03.690Z,99987.00
2023-01-07T00:08:32.525Z,99985.94
2023-01-07T00:11:02.804Z,99987.97
2023-01-07T00:13:30.827Z,99984.41
2023-01-07T00:15:59.677Z,99980.19
2023-01-07T00:18:29.197Z,99969.59
2023-01-07T00:20:58.799Z,99968.88
2023-01-07T00:23:27.193Z,99972.59
2023-01-07T00:26:02.065Z,99971.75
2023-01-07T00:28:30.070Z,99966.91
2023-01-07T00:31:01.289Z,99952.56
2023-01-07T00:33:31.185Z,99961.03
2023-01-07T00:36:03.194Z,99952.03
2023-01-07T00:38:31.198Z,99952.84
2023-01-07T00:40:59.289Z,99950.91
2023-01-07T00:43:27.679Z,99959.59
2023-01-07T00:45:55.842Z,99949.41
2023-01-07T00:48:24.117Z,99950.03
2023-01-07T00:50:54.493Z,99911.00
2023-01-07T00:53:22.983Z,99933.81
2023-01-07T00:55:51.937Z,99936.72
2023-01-07T00:58:22.277Z,99933.47
2023-01-07T01:00:50.721Z,99923.34
2023-01-07T01:03:18.829Z,99922.44
2023-01-07T01:05:46.953Z,99913.66
2023-01-07T01:08:17.997Z,99909.50
2023-01-07T01:10:46.182Z,99901.69
2023-01-07T01:13:18.097Z,99912.31
2023-01-07T01:15:47.436Z,99905.34
2023-01-07T01:18:16.508Z,99901.19
2023-01-07T01:20:44.530Z,99910.66
2023-01-07T01:23:12.582Z,99909.81
2023-01-07T01:25:41.965Z,99908.13
2023-01-07T01:28:09.953Z,99900.91
2023-01-07T01:30:38.106Z,99900.81
2023-01-07T01:33:06.125Z,99900.31
2023-01-07T01:35:34.064Z,99874.38
2023-01-07T01:38:02.240Z,99898.28
2023-01-07T01:40:32.815Z,99904.91
2023-01-07T01:43:02.275Z,99902.28
2023-01-07T01:45:31.251Z,99903.00
2023-01-07T01:48:04.434Z,99897.22
2023-01-07T01:50:38.350Z,99863.97
2023-01-07T01:53:11.953Z,99896.75
2023-01-07T01:55:44.665Z,99893.28
2023-01-07T01:58:17.556Z,99894.97
2023-01-07T02:00:46.035Z,99899.75
2023-01-07T02:03:17.830Z,99896.16
2023-01-07T02:05:47.403Z,99898.44
2023-01-07T02:08:21.972Z,99904.69
2023-01-07T02:10:59.543Z,99898.69
2023-01-07T02:13:39.124Z,99880.50
2023-01-07T02:16:17.978Z,99892.66
2023-01-07T02:19:16.487Z,99895.06
2023-01-07T02:21:57.208Z,99886.31
2023-01-07T02:24:55.044Z,99889.69
2023-01-07T02:27:46.293Z,99890.25
2023-01-07T02:30:41.087Z,99891.19
2023-01-07T02:33:38.802Z,99892.66
2023-01-07T02:36:16.995Z,99894.34
2023-01-07T02:39:01.843Z,99893.09
2023-01-07T02:41:40.453Z,99878.66
2023-01-07T02:44:21.290Z,99879.16
2023-01-07T02:46:57.231Z,99876.72
2023-01-07T02:49:25.209Z,99871.91
2023-01-07T02:51:54.580Z,99875.00
2023-01-07T02:54:25.292Z,99876.75
2023-01-07T02:57:33.306Z,99873.25
2023-01-07T03:00:15.071Z,99868.72
2023-01-07T03:03:03.000Z,99878.53
2023-01-07T03:05:58.634Z,99862.78
2023-01-07T03:08:44.254Z,99861.72
2023-01-07T03:11:13.285Z,99856.47
2023-01-07T03:13:48.547Z,99862.78
2023-01-07T03:16:22.972Z,99853.84
2023-01-07T03:18:57.073Z,99855.47
2023-01-07T03:21:28.729Z,99839.25
2023-01-07T03:23:59.994Z,99843.38
2023-01-07T03:26:32.411Z,99837.56
2023-01-07T03:29:02.991Z,99839.47
2023-01-07T03:31:32.365Z,99827.63
2023-01-07T03:34:04.805Z,99834.72
2023-01-07T03:36:38.123Z,99820.88
2023-01-07T03:39:10.800Z,99825.59
2023-01-07T03:41:53.735Z,99811.38
2023-01-07T03:44:21.882Z,99808.41
2023-01-07T03:46:50.159Z,99807.34
2023-01-07T03:49:18.200Z,99799.41
2023-01-07T03:51:46.710Z,99792.56
2023-01-07T03:54:16.204Z,99789.06
2023-01-07T03:56:44.366Z,99784.91
2023-01-07T03:59:12.440Z,99787.59
2023-01-07T04:01:40.524Z,99783.97
2023-01-07T04:04:08.727Z,99777.00
2023-01-07T04:06:36.741Z,99772.91
2023-01-07T04:09:04.969Z,99764.25
2023-01-07T04:11:34.387Z,99756.66
2023-01-07T04:14:02.441Z,99752.13
2023-01-07T04:16:30.677Z,99750.44
2023-01-07T04:18:58.745Z,99748.09
2023-01-07T04:21:26.743Z,99745.34
2023-01-07T04:23:54.708Z,99740.13
2023-01-07T04:26:22.670Z,99739.34
2023-01-07T04:28:52.024Z,99728.59
2023-01-07T04:31:20.105Z,99724.56
2023-01-07T04:33:48.108Z,99728.97
2023-01-07T04:36:16.490Z,99727.69
2023-01-07T04:38:44.473Z,99723.34
2023-01-07T04:41:12.407Z,99718.50
2023-01-07T04:43:40.363Z,99718.22
2023-01-07T04:46:09.906Z,99704.66
2023-01-07T04:48:37.978Z,99700.44
2023-01-07T04:51:06.221Z,99695.09
2023-01-07T04:53:34.286Z,99689.72
2023-01-07T04:56:02.244Z,99685.91
2023-01-07T04:58:30.234Z,99689.28
2023-01-07T05:00:59.915Z,99678.09
2023-01-07T05:03:29.304Z,99684.50
2023-01-07T05:05:57.368Z,99668.81
2023-01-07T05:08:25.389Z,99685.34
2023-01-07T05:10:54.240Z,99670.91
2023-01-07T05:13:24.200Z,99674.31
2023-01-07T05:15:52.171Z,99676.06
2023-01-07T05:18:20.165Z,99697.22
2023-01-07T05:20:49.543Z,99705.28
2023-01-07T05:23:17.527Z,99712.16
2023-01-07T05:25:45.583Z,99701.25
2023-01-07T05:28:13.546Z,99702.38
2023-01-07T05:30:41.557Z,99720.88
2023-01-07T05:33:09.598Z,99736.00
2023-01-07T05:35:37.665Z,99736.94
2023-01-07T05:38:07.154Z,99742.56
2023-01-07T05:40:35.287Z,99746.31
2023-01-07T05:43:03.363Z,99738.75
2023-01-07T05:45:31.473Z,99736.31
2023-01-07T05:47:59.530Z,99728.03
2023-01-07T05:50:27.648Z,99725.81
2023-01-07T05:52:55.634Z,99722.41
2023-01-07T05:55:25.052Z,99740.06
2023-01-07T05:57:53.000Z,99752.31
2023-01-07T06:00:21.145Z,99761.69
2023-01-07T06:02:49.124Z,99766.59
2023-01-07T06:05:17.187Z,99771.72
2023-01-07T06:07:45.158Z,99763.19
2023-01-07T06:10:13.164Z,99778.31
2023-01-07T06:12:44.922Z,99781.81
2023-01-07T06:15:13.165Z,99772.72
2023-01-07T06:17:41.233Z,99760.00
2023-01-07T06:20:10.197Z,99777.25
2023-01-07T06:22:38.210Z,99771.03
2023-01-07T06:25:06.855Z,99770.00
2023-01-07T06:27:34.827Z,99749.41
2023-01-07T06:30:04.600Z,99750.38
2023-01-07T06:32:32.799Z,99748.03
2023-01-07T06:35:00.762Z,99740.44
2023-01-07T06:37:28.764Z,99753.31
2023-01-07T06:39:58.235Z,99751.50
2023-01-07T06:42:26.343Z,99725.84
2023-01-07T06:44:54.509Z,99748.56
2023-01-07T06:47:28.222Z,99751.28
2023-01-07T06:49:56.405Z,99744.66
2023-01-07T06:52:25.300Z,99746.97
2023-01-07T06:54:53.928Z,99743.03
2023-01-07T06:57:25.288Z,99740.03
2023-01-07T06:59:54.096Z,99756.13
2023-01-07T07:02:25.667Z,99746.78
2023-01-07T07:04:54.681Z,99752.88
2023-01-07T07:07:24.139Z,99749.56
2023-01-07T07:09:52.771Z,99749.66
2023-01-07T07:12:23.436Z,99766.06
2023-01-07T07:14:51.905Z,99762.00
2023-01-07T07:17:20.806Z,99761.88
2023-01-07T07:19:51.142Z,99757.81
2023-01-07T07:22:20.260Z,99765.22
2023-01-07T07:24:49.136Z,99768.88
2023-01-07T07:27:20.837Z,99757.59
2023-01-07T07:29:49.686Z,99771.31
2023-01-07T07:32:18.264Z,99779.22
2023-01-07T07:34:46.704Z,99776.09
2023-01-07T07:37:19.403Z,99782.47
2023-01-07T07:39:48.150Z,99788.34
2023-01-07T07:42:16.776Z,99782.50
2023-01-07T07:44:45.596Z,99777.66
2023-01-07T07:47:15.634Z,99782.72
2023-01-07T07:49:43.641Z,99775.47
2023-01-07T07:52:12.013Z,99767.75
2023-01-07T07:54:50.553Z,99775.63
2023-01-07T07:57:18.799Z,99790.91
2023-01-07T07:59:46.786Z,99791.88
2023-01-07T08:02:15.666Z,99772.66
2023-01-07T08:04:46.059Z,99773.28
2023-01-07T08:07:15.231Z,99756.91
2023-01-07T08:10:02.416Z,99751.28
2023-01-07T08:12:30.503Z,99745.53
2023-01-07T08:14:58.505Z,99760.16
2023-01-07T08:17:26.508Z,99760.88
2023-01-07T08:19:54.484Z,99770.06
2023-01-07T08:22:22.437Z,99767.91
2023-01-07T08:24:50.460Z,99766.81
2023-01-07T08:27:20.032Z,99763.31
2023-01-07T08:29:48.072Z,99771.56
2023-01-07T08:32:16.427Z,99774.59
2023-01-07T08:34:44.504Z,99766.31
2023-01-07T08:37:15.277Z,99775.09
2023-01-07T08:39:43.360Z,99774.38
2023-01-07T08:42:11.567Z,99773.34
2023-01-07T08:44:40.952Z,99748.44
2023-01-07T08:47:08.971Z,99740.75
2023-01-07T08:49:37.204Z,99749.75
2023-01-07T08:52:05.551Z,99765.38
2023-01-07T08:54:33.569Z,99771.50
2023-01-07T08:57:01.717Z,99756.47
2023-01-07T08:59:29.780Z,99765.88
2023-01-07T09:01:59.298Z,99770.63
2023-01-07T09:04:27.488Z,99763.97
2023-01-07T09:06:55.613Z,99765.88
2023-01-07T09:09:23.598Z,99761.09
2023-01-07T09:11:51.593Z,99744.34
2023-01-07T09:14:19.738Z,99750.31
2023-01-07T09:16:47.928Z,99762.97
2023-01-07T09:19:17.709Z,99765.19
2023-01-07T09:21:47.285Z,99755.66
2023-01-07T09:24:15.280Z,99760.88
2023-01-07T09:26:43.782Z,99761.50
2023-01-07T09:29:12.137Z,99768.38
2023-01-07T09:31:40.216Z,99760.88
2023-01-07T09:34:08.425Z,99756.81
2023-01-07T09:36:37.812Z,99767.03
2023-01-07T09:39:05.839Z,99759.47
2023-01-07T09:41:42.655Z,99747.03
2023-01-07T09:44:20.161Z,99770.38
2023-01-07T09:46:51.402Z,99778.56
2023-01-07T09:49:20.551Z,99765.63
2023-01-07T09:51:55.805Z,99765.59
2023-01-07T09:54:30.776Z,99769.88
2023-01-07T09:56:58.949Z,99760.88
2023-01-07T09:59:27.076Z,99767.75
2023-01-07T10:02:01.737Z,99779.22
2023-01-07T10:04:39.395Z,99792.13
2023-01-07T10:07:25.031Z,99794.63
2023-01-07T10:10:06.348Z,99794.72
2023-01-07T10:12:41.837Z,99796.59
2023-01-07T10:15:24.134Z,99780.31
2023-01-07T10:18:06.871Z,99803.13
2023-01-07T10:20:45.347Z,99787.06
2023-01-07T10:23:21.750Z,99805.19
2023-01-07T10:25:52.119Z,99816.28
2023-01-07T10:28:24.047Z,99808.06
2023-01-07T10:30:53.039Z,99803.22
2023-01-07T10:33:25.393Z,99790.63
2023-01-07T10:36:02.475Z,99779.59
2023-01-07T10:38:36.406Z,99788.63
2023-01-07T10:41:13.965Z,99789.91
2023-01-07T10:46:48.763Z,99796.50
2023-01-07T10:49:31.606Z,99804.16
2023-01-07T10:52:13.817Z,99804.03
2023-01-07T10:55:04.514Z,99777.97
2023-01-07T10:57:36.064Z,99774.97
2023-01-07T11:00:08.008Z,99782.72
2023-01-07T11:02:36.035Z,99782.56
2023-01-07T11:05:04.330Z,99799.28
2023-01-07T12:12:34.699Z,99659.13
2023-01-07T12:15:23.934Z,99662.81
2023-01-07T12:18:49.509Z,99646.63
2023-01-07T12:21:48.331Z,99645.25
2023-01-07T12:24:56.781Z,99645.22
2023-01-07T12:27:57.693Z,99642.41
2023-01-07T12:31:07.696Z,99645.22
2023-01-07T12:34:05.998Z,99648.75
2023-01-07T12:38:55.626Z,99658.34
2023-01-07T12:41:31.471Z,99654.28
2023-01-07T12:44:03.697Z,99644.09
2023-01-07T12:46:40.130Z,99629.88
2023-01-07T12:49:14.167Z,99630.84
2023-01-07T12:51:46.588Z,99625.34
2023-01-07T12:54:21.396Z,99623.16
2023-01-07T12:56:54.757Z,99624.16
2023-01-07T12:59:45.579Z,99593.69
2023-01-07T13:02:25.091Z,99587.91
2023-01-07T13:05:04.913Z,99584.41
2023-01-07T13:07:40.112Z,99567.00
2023-01-07T13:10:17.708Z,99562.00
2023-01-07T13:12:47.492Z,99552.63
2023-01-07T13:15:26.864Z,99556.63
2023-01-07T13:17:57.059Z,99554.97
2023-01-07T13:20:53.912Z,99555.63
2023-01-07T13:23:27.082Z,99541.63
2023-01-07T13:26:20.915Z,99536.13
2023-01-07T13:29:03.807Z,99520.88
2023-01-07T13:32:24.747Z,99539.91
2023-01-07T13:35:26.136Z,99530.09
2023-01-07T13:38:14.495Z,99528.38
2023-01-07T13:41:01.585Z,99502.97
2023-01-07T13:43:43.639Z,99490.91
2023-01-07T13:46:14.806Z,99489.03
2023-01-07T13:48:49.645Z,99489.88
2023-01-07T13:51:25.124Z,99479.31
2023-01-07T13:53:53.252Z,99496.16
2023-01-07T13:56:36.752Z,99480.31
2023-01-07T13:59:30.072Z,99474.06
2023-01-07T14:02:22.088Z,99454.16
2023-01-07T14:05:04.260Z,99455.06
2023-01-07T14:07:32.929Z,99450.63
2023-01-07T14:10:00.971Z,99449.97
2023-01-07T14:13:07.967Z,99458.50
2023-01-07T14:16:06.293Z,99459.41
2023-01-07T14:18:46.187Z,99444.38
2023-01-07T14:21:36.856Z,99444.66
2023-01-07T14:24:33.194Z,99433.53
2023-01-07T14:27:11.559Z,99440.16
2023-01-07T14:29:42.917Z,99436.03
2023-01-07T14:32:27.009Z,99429.25
2023-01-07T14:34:57.916Z,99438.31
2023-01-07T14:37:35.563Z,99422.78
2023-01-07T14:40:42.784Z,99423.91
2023-01-07T14:43:48.052Z,99422.59
2023-01-07T14:46:45.497Z,99415.84
2023-01-07T14:50:04.184Z,99409.84
2023-01-07T14:53:17.404Z,99398.91
2023-01-07T14:56:02.120Z,99389.63
2023-01-07T14:58:42.562Z,99394.75
2023-01-07T15:01:38.059Z,99388.56
2023-01-07T15:04:55.250Z,99392.59
2023-01-07T15:07:28.087Z,99390.00
2023-01-07T15:10:18.731Z,99399.59
2023-01-07T15:13:09.003Z,99383.84
2023-01-07T15:15:59.144Z,99397.72
2023-01-07T15:18:27.235Z,99401.25
2023-01-07T15:21:09.139Z,99401.41
2023-01-07T15:23:46.517Z,99394.38
2023-01-07T15:26:22.202Z,99393.31
2023-01-07T15:28:56.019Z,99396.25
2023-01-07T15:31:30.269Z,99402.25
2023-01-07T15:34:11.945Z,99406.72
2023-01-07T15:36:43.539Z,99405.34
2023-01-07T15:39:20.774Z,99393.19
2023-01-07T15:41:52.561Z,99391.81
2023-01-07T15:44:24.639Z,99386.28
2023-01-07T15:46:52.779Z,99387.13
2023-01-07T15:49:23.628Z,99380.56
2023-01-07T15:51:54.688Z,99392.84
2023-01-07T15:54:35.421Z,99413.97
2023-01-07T15:57:09.574Z,99413.94
2023-01-07T15:59:42.608Z,99415.78
2023-01-07T16:02:24.560Z,99404.28
2023-01-07T16:04:57.112Z,99409.88
2023-01-07T16:07:29.243Z,99417.56
2023-01-07T16:09:58.677Z,99417.00
2023-01-07T16:12:34.483Z,99419.97
2023-01-07T16:15:04.693Z,99417.28
2023-01-07T16:17:33.180Z,99427.00
2023-01-07T16:20:11.449Z,99425.81
2023-01-07T16:22:41.891Z,99436.38
2023-01-07T16:25:15.220Z,99440.75
2023-01-07T16:27:45.025Z,99427.41
2023-01-07T16:30:16.323Z,99431.63
2023-01-07T16:32:45.408Z,99432.88
2023-01-07T16:35:19.832Z,99427.59
2023-01-07T16:37:50.069Z,99429.03
2023-01-07T16:40:24.049Z,99427.38
2023-01-07T16:42:53.699Z,99431.03
2023-01-07T16:45:28.386Z,99423.66
2023-01-07T16:48:20.085Z,99422.19
2023-01-07T16:50:49.931Z,99422.00
2023-01-07T16:53:27.875Z,99424.53
2023-01-07T16:56:10.748Z,99418.63
2023-01-07T16:58:42.784Z,99407.47
2023-01-07T17:01:12.133Z,99410.94
2023-01-07T17:03:52.750Z,99408.75
2023-01-07T17:06:25.876Z,99411.91
2023-01-07T17:08:56.589Z,99401.06
2023-01-07T17:11:30.688Z,99405.91
2023-01-07T17:14:00.409Z,99403.06
2023-01-07T17:16:33.047Z,99415.94
2023-01-07T17:19:25.643Z,99420.13
2023-01-07T17:21:54.391Z,99413.00
2023-01-07T17:24:47.629Z,99423.31
2023-01-07T17:27:26.980Z,99415.47
2023-01-07T17:29:57.420Z,99415.16
2023-01-07T17:32:25.505Z,99412.31
2023-01-07T17:34:53.489Z,99411.84
2023-01-07T17:37:21.596Z,99405.66
2023-01-07T17:39:51.326Z,99403.28
2023-01-07T17:42:42.385Z,99402.31
2023-01-07T17:45:17.238Z,99396.44
2023-01-07T17:47:46.456Z,99398.47
2023-01-07T17:50:16.092Z,99399.47
2023-01-07T17:52:46.897Z,99411.09
2023-01-07T17:55:16.789Z,99414.16
2023-01-07T17:57:45.160Z,99409.97
2023-01-07T18:00:21.058Z,99413.97
2023-01-07T18:02:49.638Z,99419.00
2023-01-07T18:05:19.940Z,99417.00
2023-01-07T18:07:48.564Z,99420.50
2023-01-07T18:10:18.660Z,99432.34
2023-01-07T18:12:46.304Z,99438.91
2023-01-07T18:15:25.153Z,99431.03
2023-01-07T18:17:54.070Z,99430.03
2023-01-07T18:20:23.520Z,99433.69
2023-01-07T18:22:54.398Z,99417.31
2023-01-07T18:25:23.808Z,99411.97
2023-01-07T18:27:53.284Z,99419.97
2023-01-07T18:30:23.925Z,99412.63
2023-01-07T18:32:53.886Z,99418.00
2023-01-07T18:35:24.947Z,99417.47
2023-01-07T18:37:53.340Z,99422.00
2023-01-07T18:40:21.908Z,99411.81
2023-01-07T18:42:50.606Z,99422.34
2023-01-07T18:45:18.936Z,99421.66
2023-01-07T18:47:48.595Z,99431.88
2023-01-07T18:50:17.697Z,99440.06
2023-01-07T18:52:45.680Z,99436.38
2023-01-07T18:55:16.104Z,99432.03
2023-01-07T18:57:44.401Z,99433.72
2023-01-07T19:00:13.664Z,99436.72
2023-01-07T19:02:42.001Z,99440.88
2023-01-07T19:05:11.550Z,99436.53
2023-01-07T19:07:39.679Z,99447.38
2023-01-07T19:10:08.611Z,99424.97
2023-01-07T19:12:36.630Z,99429.84
2023-01-07T19:15:05.013Z,99436.84
2023-01-07T19:17:33.090Z,99433.53
2023-01-07T19:20:01.886Z,99432.06
2023-01-07T19:22:31.283Z,99445.25
2023-01-07T19:24:59.227Z,99450.94
2023-01-07T19:27:27.287Z,99440.38
2023-01-07T19:29:55.254Z,99436.72
2023-01-07T19:32:23.354Z,99430.03
2023-01-07T19:34:52.985Z,99425.38
2023-01-07T19:37:22.087Z,99434.06
2023-01-07T19:39:51.653Z,99451.72
2023-01-07T19:42:19.662Z,99454.91
2023-01-07T19:44:47.645Z,99455.59
2023-01-07T19:47:17.198Z,99474.97
2023-01-07T19:49:45.588Z,99474.28
2023-01-07T19:52:13.766Z,99490.66
2023-01-07T19:54:42.281Z,99494.88
2023-01-07T19:57:11.939Z,99495.53
2023-01-07T19:59:39.927Z,99494.53
2023-01-07T20:02:08.163Z,99500.88
2023-01-07T20:04:36.471Z,99499.13
2023-01-07T20:07:04.616Z,99500.22
2023-01-07T20:09:32.927Z,99489.78
2023-01-07T20:12:01.096Z,99487.78
2023-01-07T20:14:30.521Z,99479.38
2023-01-07T20:16:58.662Z,99466.03
2023-01-07T20:19:27.258Z,99466.06
2023-01-07T20:21:55.217Z,99480.47
2023-01-07T20:24:23.199Z,99463.56
2023-01-07T20:26:53.189Z,99469.84
2023-01-07T20:29:22.529Z,99456.69
2023-01-07T20:31:51.926Z,99475.75
2023-01-07T20:34:20.048Z,99480.78
2023-01-07T20:36:48.020Z,99490.66
2023-01-07T20:39:16.296Z,99496.00
2023-01-07T20:41:44.527Z,99492.47
2023-01-07T20:44:13.331Z,99488.09
2023-01-07T20:46:41.895Z,99476.91
2023-01-07T20:49:12.552Z,99479.09
2023-01-07T20:51:40.853Z,99495.16
2023-01-07T20:54:09.129Z,99507.84
2023-01-07T20:56:37.321Z,99521.03
2023-01-07T20:59:05.568Z,99525.53
2023-01-07T21:01:33.953Z,99530.22
2023-01-07T21:04:03.041Z,99520.84
2023-01-07T21:06:32.737Z,99506.25
2023-01-07T21:09:01.137Z,99515.28
2023-01-07T21:11:29.177Z,99519.16
2023-01-07T21:13:57.152Z,99523.53
2023-01-07T21:16:26.063Z,99509.16
2023-01-07T21:18:54.320Z,99511.34
2023-01-07T21:21:25.319Z,99528.56
2023-01-07T21:23:55.547Z,99528.91
2023-01-07T21:26:26.101Z,99529.22
2023-01-07T21:28:56.049Z,99521.59
2023-01-07T21:31:25.192Z,99499.53
2023-01-07T21:33:56.497Z,99529.88
2023-01-07T21:36:25.935Z,99523.69
2023-01-07T21:38:56.793Z,99530.25
2023-01-07T21:41:25.647Z,99523.41
2023-01-07T21:43:53.713Z,99514.25
2023-01-07T21:46:22.603Z,99518.16
2023-01-07T21:48:51.868Z,99518.78
2023-01-07T21:51:22.221Z,99534.09
2023-01-07T21:53:52.150Z,99532.09
2023-01-07T21:56:21.740Z,99524.78
2023-01-07T21:58:50.633Z,99527.13
2023-01-07T22:01:20.111Z,99532.97
2023-01-07T22:03:49.902Z,99543.00
2023-01-07T22:06:20.819Z,99545.22
2023-01-07T22:08:49.217Z,99552.59
2023-01-07T22:11:18.982Z,99534.03
2023-01-07T22:13:52.920Z,99532.53
2023-01-07T22:16:21.474Z,99531.69
2023-01-07T22:18:49.716Z,99540.75
2023-01-07T22:21:18.667Z,99533.88
2023-01-07T22:23:47.569Z,99531.03
2023-01-07T22:26:17.658Z,99533.72
2023-01-07T22:28:50.012Z,99545.59
2023-01-07T22:31:22.303Z,99540.75
2023-01-07T22:33:50.428Z,99540.75
2023-01-07T22:36:23.181Z,99521.19
2023-01-07T22:38:52.808Z,99513.00
2023-01-07T22:41:20.999Z,99505.16
2023-01-07T22:43:49.092Z,99519.50
2023-01-07T22:46:22.908Z,99527.38
2023-01-07T22:48:51.213Z,99533.22
2023-01-07T22:51:25.014Z,99543.56
2023-01-07T22:53:56.278Z,99543.72
2023-01-07T22:56:24.699Z,99547.06
2023-01-07T22:58:52.773Z,99537.91
2023-01-07T23:01:22.512Z,99535.72
2023-01-07T23:03:50.516Z,99523.38
2023-01-07T23:06:18.720Z,99527.69
2023-01-07T23:08:46.783Z,99537.72
2023-01-07T23:11:35.289Z,99534.56
2023-01-07T23:14:03.865Z,99538.38
2023-01-07T23:16:33.524Z,99545.59
2023-01-07T23:19:01.664Z,99539.06
2023-01-07T23:21:31.509Z,99535.47
2023-01-07T23:23:59.883Z,99532.66
2023-01-07T23:26:27.991Z,99537.38
2023-01-07T23:28:55.975Z,99540.53
2023-01-07T23:31:24.070Z,99536.53
2023-01-07T23:33:53.663Z,99543.72
2023-01-07T23:36:21.627Z,99546.59
2023-01-07T23:38:49.623Z,99534.22
2023-01-07T23:41:18.280Z,99538.38
2023-01-07T23:43:46.507Z,99522.03
2023-01-07T23:46:14.599Z,99519.50
2023-01-07T23:48:42.919Z,99506.44
2023-01-07T23:51:14.503Z,99501.28
2023-01-07T23:53:42.648Z,99511.84
2023-01-07T23:56:10.953Z,99513.69
2023-01-07T23:58:39.929Z,99518.34
